sensor_id;sensor_type;location;lat;lon;timestamp;noise_LAeq;noise_LA_min;noise_LA_max;noise_LA01;noise_LA95
70740;Laerm;58330;51.888;11.052;2022-12-29T00:01:15;37.41;35.79;39.63;;
70740;Laerm;58330;51.888;11.052;2022-12-29T00:03:41;37.41;35.38;39.15;;
70740;Laerm;58330;51.888;11.052;2022-12-29T00:06:06;37.57;35.73;39.61;;
70740;Laerm;58330;51.888;11.052;2022-12-29T00:08:32;37.35;35.91;38.95;;
70740;Laerm;58330;51.888;11.052;2022-12-29T00:11:05;37.54;35.66;39.57;;
70740;Laerm;58330;51.888;11.052;2022-12-29T00:13:31;37.77;36.19;45.08;;
70740;Laerm;58330;51.888;11.052;2022-12-29T00:16:15;37.62;36.15;39.34;;
70740;Laerm;58330;51.888;11.052;2022-12-29T00:18:40;37.57;35.98;40.01;;
70740;Laerm;58330;51.888;11.052;2022-12-29T00:21:07;37.47;35.88;39.02;;
70740;Laerm;58330;51.888;11.052;2022-12-29T00:23:51;37.62;35.95;39.68;;
70740;Laerm;58330;51.888;11.052;2022-12-29T00:26:47;37.43;35.83;39.17;;
70740;Laerm;58330;51.888;11.052;2022-12-29T00:29:32;37.36;35.88;38.86;;
70740;Laerm;58330;51.888;11.052;2022-12-29T00:32:16;37.29;35.76;38.95;;
70740;Laerm;58330;51.888;11.052;2022-12-29T00:35:00;37.52;35.08;39.89;;
70740;Laerm;58330;51.888;11.052;2022-12-29T00:37:43;37.33;35.81;39.63;;
70740;Laerm;58330;51.888;11.052;2022-12-29T00:40:29;37.31;35.43;39.30;;
70740;Laerm;58330;51.888;11.052;2022-12-29T00:43:14;37.09;35.57;39.29;;
70740;Laerm;58330;51.888;11.052;2022-12-29T00:45:58;37.00;35.52;38.44;;
70740;Laerm;58330;51.888;11.052;2022-12-29T00:48:23;37.25;35.34;39.25;;
70740;Laerm;58330;51.888;11.052;2022-12-29T00:51:04;37.20;35.52;40.52;;
70740;Laerm;58330;51.888;11.052;2022-12-29T00:53:30;37.35;35.51;41.57;;
70740;Laerm;58330;51.888;11.052;2022-12-29T00:55:55;37.20;35.47;39.50;;
70740;Laerm;58330;51.888;11.052;2022-12-29T00:58:22;36.97;35.15;38.34;;
70740;Laerm;58330;51.888;11.052;2022-12-29T01:00:47;36.95;35.20;38.56;;
70740;Laerm;58330;51.888;11.052;2022-12-29T01:03:13;37.00;35.47;39.03;;
70740;Laerm;58330;51.888;11.052;2022-12-29T01:05:39;36.85;35.48;38.27;;
70740;Laerm;58330;51.888;11.052;2022-12-29T01:08:04;37.01;35.18;39.66;;
70740;Laerm;58330;51.888;11.052;2022-12-29T01:10:30;36.84;35.28;38.91;;
70740;Laerm;58330;51.888;11.052;2022-12-29T01:12:55;36.78;35.17;38.51;;
70740;Laerm;58330;51.888;11.052;2022-12-29T01:15:22;36.83;35.16;38.71;;
70740;Laerm;58330;51.888;11.052;2022-12-29T01:17:48;37.10;34.87;40.68;;
70740;Laerm;58330;51.888;11.052;2022-12-29T01:20:13;37.10;35.22;39.93;;
70740;Laerm;58330;51.888;11.052;2022-12-29T01:22:39;36.69;35.10;38.28;;
70740;Laerm;58330;51.888;11.052;2022-12-29T01:25:07;37.24;35.18;42.90;;
70740;Laerm;58330;51.888;11.052;2022-12-29T01:27:33;37.22;35.34;47.72;;
70740;Laerm;58330;51.888;11.052;2022-12-29T01:29:59;36.82;35.30;38.19;;
70740;Laerm;58330;51.888;11.052;2022-12-29T01:32:25;36.79;35.28;38.28;;
70740;Laerm;58330;51.888;11.052;2022-12-29T01:34:51;36.89;35.42;38.68;;
70740;Laerm;58330;51.888;11.052;2022-12-29T01:37:17;37.01;35.12;38.31;;
70740;Laerm;58330;51.888;11.052;2022-12-29T01:39:42;36.98;35.32;38.54;;
70740;Laerm;58330;51.888;11.052;2022-12-29T01:42:11;37.02;35.45;38.51;;
70740;Laerm;58330;51.888;11.052;2022-12-29T01:44:50;37.05;35.35;38.45;;
70740;Laerm;58330;51.888;11.052;2022-12-29T01:47:18;36.98;35.30;38.50;;
70740;Laerm;58330;51.888;11.052;2022-12-29T01:49:47;37.12;35.71;38.49;;
70740;Laerm;58330;51.888;11.052;2022-12-29T01:52:12;37.25;35.45;38.86;;
70740;Laerm;58330;51.888;11.052;2022-12-29T01:54:38;37.17;35.66;38.75;;
70740;Laerm;58330;51.888;11.052;2022-12-29T01:57:06;37.21;35.64;38.87;;
70740;Laerm;58330;51.888;11.052;2022-12-29T01:59:34;37.18;35.69;38.56;;
70740;Laerm;58330;51.888;11.052;2022-12-29T02:02:01;37.24;35.44;38.77;;
70740;Laerm;58330;51.888;11.052;2022-12-29T02:04:27;37.23;35.10;38.69;;
70740;Laerm;58330;51.888;11.052;2022-12-29T02:06:57;37.21;35.51;39.10;;
70740;Laerm;58330;51.888;11.052;2022-12-29T02:09:25;37.28;35.64;38.96;;
70740;Laerm;58330;51.888;11.052;2022-12-29T02:11:51;37.49;35.78;39.47;;
70740;Laerm;58330;51.888;11.052;2022-12-29T02:14:17;37.17;35.79;38.47;;
70740;Laerm;58330;51.888;11.052;2022-12-29T02:16:46;37.23;35.62;38.61;;
70740;Laerm;58330;51.888;11.052;2022-12-29T02:19:23;37.52;35.99;42.02;;
70740;Laerm;58330;51.888;11.052;2022-12-29T02:22:01;37.25;35.64;38.80;;
70740;Laerm;58330;51.888;11.052;2022-12-29T02:24:44;37.22;35.48;38.65;;
70740;Laerm;58330;51.888;11.052;2022-12-29T02:27:24;37.48;35.85;38.85;;
70740;Laerm;58330;51.888;11.052;2022-12-29T02:30:05;37.60;36.11;39.05;;
70740;Laerm;58330;51.888;11.052;2022-12-29T02:32:35;37.75;36.14;39.18;;
70740;Laerm;58330;51.888;11.052;2022-12-29T02:35:05;37.86;36.05;39.57;;
70740;Laerm;58330;51.888;11.052;2022-12-29T02:37:35;37.78;36.42;39.34;;
70740;Laerm;58330;51.888;11.052;2022-12-29T02:40:06;37.70;35.98;39.33;;
70740;Laerm;58330;51.888;11.052;2022-12-29T02:42:35;37.61;36.06;39.16;;
70740;Laerm;58330;51.888;11.052;2022-12-29T02:45:03;37.53;36.08;39.02;;
70740;Laerm;58330;51.888;11.052;2022-12-29T02:47:31;37.43;35.91;38.86;;
70740;Laerm;58330;51.888;11.052;2022-12-29T02:50:02;37.39;35.97;38.98;;
70740;Laerm;58330;51.888;11.052;2022-12-29T02:52:30;37.36;35.60;38.82;;
70740;Laerm;58330;51.888;11.052;2022-12-29T02:54:57;37.37;35.65;39.25;;
70740;Laerm;58330;51.888;11.052;2022-12-29T02:57:30;37.19;35.72;39.13;;
70740;Laerm;58330;51.888;11.052;2022-12-29T02:59:57;37.07;35.50;38.61;;
70740;Laerm;58330;51.888;11.052;2022-12-29T03:02:30;37.26;35.28;40.52;;
70740;Laerm;58330;51.888;11.052;2022-12-29T03:05:11;37.15;35.60;38.50;;
70740;Laerm;58330;51.888;11.052;2022-12-29T03:07:40;37.22;35.63;38.89;;
70740;Laerm;58330;51.888;11.052;2022-12-29T03:10:11;37.07;35.65;38.53;;
70740;Laerm;58330;51.888;11.052;2022-12-29T03:12:41;37.30;35.42;40.35;;
70740;Laerm;58330;51.888;11.052;2022-12-29T03:15:30;37.06;35.64;38.64;;
70740;Laerm;58330;51.888;11.052;2022-12-29T03:18:19;37.00;35.40;38.51;;
70740;Laerm;58330;51.888;11.052;2022-12-29T03:20:47;36.99;35.58;38.33;;
70740;Laerm;58330;51.888;11.052;2022-12-29T03:23:15;37.19;35.09;39.97;;
70740;Laerm;58330;51.888;11.052;2022-12-29T03:25:42;37.19;35.49;38.72;;
70740;Laerm;58330;51.888;11.052;2022-12-29T03:28:09;37.13;35.69;38.78;;
70740;Laerm;58330;51.888;11.052;2022-12-29T03:30:37;37.11;35.50;38.67;;
70740;Laerm;58330;51.888;11.052;2022-12-29T03:33:05;37.20;35.75;38.61;;
70740;Laerm;58330;51.888;11.052;2022-12-29T03:35:34;37.38;35.63;39.40;;
70740;Laerm;58330;51.888;11.052;2022-12-29T03:38:04;37.19;35.55;38.65;;
70740;Laerm;58330;51.888;11.052;2022-12-29T03:40:33;37.17;35.66;38.54;;
70740;Laerm;58330;51.888;11.052;2022-12-29T03:42:59;37.08;35.55;38.45;;
70740;Laerm;58330;51.888;11.052;2022-12-29T03:45:25;37.15;35.39;38.95;;
70740;Laerm;58330;51.888;11.052;2022-12-29T03:47:51;37.13;35.71;38.61;;
70740;Laerm;58330;51.888;11.052;2022-12-29T03:50:17;37.03;35.44;38.42;;
70740;Laerm;58330;51.888;11.052;2022-12-29T03:52:43;37.10;35.35;39.63;;
70740;Laerm;58330;51.888;11.052;2022-12-29T03:55:09;37.76;35.40;41.25;;
70740;Laerm;58330;51.888;11.052;2022-12-29T03:57:35;37.66;35.53;54.15;;
70740;Laerm;58330;51.888;11.052;2022-12-29T04:00:01;37.21;35.72;38.98;;
70740;Laerm;58330;51.888;11.052;2022-12-29T04:02:26;37.31;35.45;41.72;;
70740;Laerm;58330;51.888;11.052;2022-12-29T04:04:52;37.31;35.64;39.41;;
70740;Laerm;58330;51.888;11.052;2022-12-29T04:07:18;37.31;35.47;38.88;;
70740;Laerm;58330;51.888;11.052;2022-12-29T04:09:43;37.31;35.86;38.90;;
70740;Laerm;58330;51.888;11.052;2022-12-29T04:12:10;37.36;35.90;38.77;;
70740;Laerm;58330;51.888;11.052;2022-12-29T04:14:35;37.17;35.43;38.87;;
70740;Laerm;58330;51.888;11.052;2022-12-29T04:17:01;37.38;35.61;42.20;;
70740;Laerm;58330;51.888;11.052;2022-12-29T04:19:27;37.36;35.71;43.19;;
70740;Laerm;58330;51.888;11.052;2022-12-29T04:21:52;37.24;35.84;38.62;;
70740;Laerm;58330;51.888;11.052;2022-12-29T04:24:18;37.29;35.32;38.70;;
70740;Laerm;58330;51.888;11.052;2022-12-29T04:26:44;37.61;35.90;41.10;;
70740;Laerm;58330;51.888;11.052;2022-12-29T04:29:10;37.38;35.82;38.94;;
70740;Laerm;58330;51.888;11.052;2022-12-29T04:31:36;37.49;35.82;40.90;;
70740;Laerm;58330;51.888;11.052;2022-12-29T04:34:02;37.36;35.87;39.66;;
70740;Laerm;58330;51.888;11.052;2022-12-29T04:36:27;37.32;35.24;38.64;;
70740;Laerm;58330;51.888;11.052;2022-12-29T04:38:53;37.28;35.64;38.96;;
70740;Laerm;58330;51.888;11.052;2022-12-29T04:41:19;37.34;35.64;39.15;;
70740;Laerm;58330;51.888;11.052;2022-12-29T04:43:45;37.35;35.39;42.17;;
70740;Laerm;58330;51.888;11.052;2022-12-29T04:46:11;37.11;35.43;38.84;;
70740;Laerm;58330;51.888;11.052;2022-12-29T04:48:37;36.98;35.00;38.51;;
70740;Laerm;58330;51.888;11.052;2022-12-29T04:51:02;36.88;35.37;38.53;;
70740;Laerm;58330;51.888;11.052;2022-12-29T04:53:28;36.85;35.19;38.48;;
70740;Laerm;58330;51.888;11.052;2022-12-29T04:55:54;36.90;35.07;39.41;;
70740;Laerm;58330;51.888;11.052;2022-12-29T04:58:20;37.53;35.30;41.65;;
70740;Laerm;58330;51.888;11.052;2022-12-29T05:00:46;36.79;35.22;41.12;;
70740;Laerm;58330;51.888;11.052;2022-12-29T05:03:12;36.80;35.05;41.66;;
70740;Laerm;58330;51.888;11.052;2022-12-29T05:05:38;36.63;35.18;38.39;;
70740;Laerm;58330;51.888;11.052;2022-12-29T05:08:04;36.93;35.03;41.93;;
70740;Laerm;58330;51.888;11.052;2022-12-29T05:10:30;36.62;35.06;45.27;;
70740;Laerm;58330;51.888;11.052;2022-12-29T05:12:56;36.83;34.96;41.44;;
70740;Laerm;58330;51.888;11.052;2022-12-29T05:15:23;37.00;34.78;59.52;;
70740;Laerm;58330;51.888;11.052;2022-12-29T05:17:48;36.61;34.88;53.71;;
70740;Laerm;58330;51.888;11.052;2022-12-29T05:20:15;36.99;35.23;44.66;;
70740;Laerm;58330;51.888;11.052;2022-12-29T05:22:41;36.66;34.86;41.27;;
70740;Laerm;58330;51.888;11.052;2022-12-29T05:25:08;36.48;34.82;38.58;;
70740;Laerm;58330;51.888;11.052;2022-12-29T05:27:34;36.28;34.91;37.57;;
70740;Laerm;58330;51.888;11.052;2022-12-29T05:29:59;36.74;34.87;48.20;;
70740;Laerm;58330;51.888;11.052;2022-12-29T05:32:25;36.50;34.86;38.03;;
70740;Laerm;58330;51.888;11.052;2022-12-29T05:34:51;36.29;34.78;39.17;;
70740;Laerm;58330;51.888;11.052;2022-12-29T05:37:17;36.70;34.99;38.72;;
70740;Laerm;58330;51.888;11.052;2022-12-29T05:39:43;36.51;34.60;38.89;;
70740;Laerm;58330;51.888;11.052;2022-12-29T05:42:09;37.56;34.86;48.79;;
70740;Laerm;58330;51.888;11.052;2022-12-29T05:44:35;41.46;35.19;60.63;;
70740;Laerm;58330;51.888;11.052;2022-12-29T05:47:00;37.04;35.02;43.73;;
70740;Laerm;58330;51.888;11.052;2022-12-29T05:49:26;36.91;35.13;56.61;;
70740;Laerm;58330;51.888;11.052;2022-12-29T05:51:52;38.24;35.02;46.55;;
70740;Laerm;58330;51.888;11.052;2022-12-29T05:54:18;41.52;35.28;49.59;;
70740;Laerm;58330;51.888;11.052;2022-12-29T05:56:44;36.97;35.00;47.21;;
70740;Laerm;58330;51.888;11.052;2022-12-29T05:59:10;37.82;34.84;48.25;;
70740;Laerm;58330;51.888;11.052;2022-12-29T06:01:35;36.79;34.81;41.27;;
70740;Laerm;58330;51.888;11.052;2022-12-29T06:04:01;36.94;34.83;39.53;;
70740;Laerm;58330;51.888;11.052;2022-12-29T06:06:27;36.89;34.67;39.99;;
70740;Laerm;58330;51.888;11.052;2022-12-29T06:08:53;37.53;35.41;42.72;;
70740;Laerm;58330;51.888;11.052;2022-12-29T06:11:19;37.51;35.14;50.04;;
70740;Laerm;58330;51.888;11.052;2022-12-29T06:13:45;37.12;34.93;42.21;;
70740;Laerm;58330;51.888;11.052;2022-12-29T06:16:10;37.56;35.26;46.03;;
70740;Laerm;58330;51.888;11.052;2022-12-29T06:18:36;36.97;34.78;48.38;;
70740;Laerm;58330;51.888;11.052;2022-12-29T06:21:02;37.20;35.16;51.28;;
70740;Laerm;58330;51.888;11.052;2022-12-29T06:23:31;37.13;34.85;60.28;;
70740;Laerm;58330;51.888;11.052;2022-12-29T06:25:56;37.61;35.11;44.96;;
70740;Laerm;58330;51.888;11.052;2022-12-29T06:28:23;37.92;35.17;46.00;;
70740;Laerm;58330;51.888;11.052;2022-12-29T06:30:49;37.56;35.33;48.39;;
70740;Laerm;58330;51.888;11.052;2022-12-29T06:33:14;39.24;34.93;64.60;;
70740;Laerm;58330;51.888;11.052;2022-12-29T06:35:41;36.78;34.95;42.77;;
70740;Laerm;58330;51.888;11.052;2022-12-29T06:38:07;36.73;34.78;48.86;;
70740;Laerm;58330;51.888;11.052;2022-12-29T06:40:32;37.10;34.91;43.01;;
70740;Laerm;58330;51.888;11.052;2022-12-29T06:42:58;37.34;34.88;49.86;;
70740;Laerm;58330;51.888;11.052;2022-12-29T06:45:24;36.89;35.10;41.57;;
70740;Laerm;58330;51.888;11.052;2022-12-29T06:47:50;37.16;35.29;51.37;;
70740;Laerm;58330;51.888;11.052;2022-12-29T06:50:15;36.66;34.87;40.99;;
70740;Laerm;58330;51.888;11.052;2022-12-29T06:52:41;36.48;34.93;50.09;;
70740;Laerm;58330;51.888;11.052;2022-12-29T06:55:07;37.33;35.15;40.96;;
70740;Laerm;58330;51.888;11.052;2022-12-29T06:57:33;37.68;35.35;42.40;;
70740;Laerm;58330;51.888;11.052;2022-12-29T06:59:58;36.80;34.67;42.18;;
70740;Laerm;58330;51.888;11.052;2022-12-29T07:02:25;36.86;34.92;41.56;;
70740;Laerm;58330;51.888;11.052;2022-12-29T07:04:50;36.49;34.98;37.88;;
70740;Laerm;58330;51.888;11.052;2022-12-29T07:07:17;37.40;35.10;41.63;;
70740;Laerm;58330;51.888;11.052;2022-12-29T07:09:42;39.54;34.70;52.19;;
70740;Laerm;58330;51.888;11.052;2022-12-29T07:12:08;38.09;35.11;45.57;;
70740;Laerm;58330;51.888;11.052;2022-12-29T07:14:34;37.05;35.14;45.96;;
70740;Laerm;58330;51.888;11.052;2022-12-29T07:17:00;37.57;34.95;50.92;;
70740;Laerm;58330;51.888;11.052;2022-12-29T07:19:27;36.52;34.83;41.83;;
70740;Laerm;58330;51.888;11.052;2022-12-29T07:21:53;36.95;34.73;43.44;;
70740;Laerm;58330;51.888;11.052;2022-12-29T07:24:19;38.93;34.95;49.25;;
70740;Laerm;58330;51.888;11.052;2022-12-29T07:26:45;36.45;34.84;40.27;;
70740;Laerm;58330;51.888;11.052;2022-12-29T07:29:10;36.77;34.64;40.89;;
70740;Laerm;58330;51.888;11.052;2022-12-29T07:31:36;36.75;34.94;39.83;;
70740;Laerm;58330;51.888;11.052;2022-12-29T07:34:02;36.86;34.92;44.00;;
70740;Laerm;58330;51.888;11.052;2022-12-29T07:36:28;36.60;34.29;42.97;;
70740;Laerm;58330;51.888;11.052;2022-12-29T07:38:54;36.73;34.82;51.09;;
70740;Laerm;58330;51.888;11.052;2022-12-29T07:41:20;36.26;34.62;38.29;;
70740;Laerm;58330;51.888;11.052;2022-12-29T07:43:46;36.77;34.77;41.16;;
70740;Laerm;58330;51.888;11.052;2022-12-29T07:46:11;36.54;34.67;41.05;;
70740;Laerm;58330;51.888;11.052;2022-12-29T07:48:37;36.36;34.54;42.48;;
70740;Laerm;58330;51.888;11.052;2022-12-29T07:51:03;36.01;34.49;38.06;;
70740;Laerm;58330;51.888;11.052;2022-12-29T07:53:29;36.45;34.05;40.34;;
70740;Laerm;58330;51.888;11.052;2022-12-29T07:55:55;37.11;34.48;45.15;;
70740;Laerm;58330;51.888;11.052;2022-12-29T07:58:21;36.13;34.35;41.19;;
70740;Laerm;58330;51.888;11.052;2022-12-29T08:00:46;36.44;34.36;41.72;;
70740;Laerm;58330;51.888;11.052;2022-12-29T08:03:12;36.35;34.61;48.77;;
70740;Laerm;58330;51.888;11.052;2022-12-29T08:05:38;36.53;34.39;41.55;;
70740;Laerm;58330;51.888;11.052;2022-12-29T08:08:04;36.83;34.50;44.57;;
70740;Laerm;58330;51.888;11.052;2022-12-29T08:10:30;36.12;34.31;44.22;;
70740;Laerm;58330;51.888;11.052;2022-12-29T08:12:55;36.62;34.11;41.66;;
70740;Laerm;58330;51.888;11.052;2022-12-29T08:15:21;36.38;33.99;44.78;;
70740;Laerm;58330;51.888;11.052;2022-12-29T08:17:47;36.56;34.63;42.34;;
70740;Laerm;58330;51.888;11.052;2022-12-29T08:20:12;36.22;34.02;40.09;;
70740;Laerm;58330;51.888;11.052;2022-12-29T08:22:38;37.69;34.76;64.86;;
70740;Laerm;58330;51.888;11.052;2022-12-29T08:25:04;40.13;34.69;48.05;;
70740;Laerm;58330;51.888;11.052;2022-12-29T08:27:30;36.67;34.69;44.13;;
70740;Laerm;58330;51.888;11.052;2022-12-29T08:29:57;37.15;34.92;45.54;;
70740;Laerm;58330;51.888;11.052;2022-12-29T08:32:25;41.63;34.80;52.23;;
70740;Laerm;58330;51.888;11.052;2022-12-29T08:34:51;45.79;36.20;54.52;;
70740;Laerm;58330;51.888;11.052;2022-12-29T08:37:17;37.85;35.17;45.13;;
70740;Laerm;58330;51.888;11.052;2022-12-29T08:39:42;36.75;34.28;40.17;;
70740;Laerm;58330;51.888;11.052;2022-12-29T08:42:08;37.68;34.60;43.92;;
70740;Laerm;58330;51.888;11.052;2022-12-29T08:44:34;36.88;34.40;42.29;;
70740;Laerm;58330;51.888;11.052;2022-12-29T08:47:00;36.90;34.87;42.00;;
70740;Laerm;58330;51.888;11.052;2022-12-29T08:49:26;36.95;34.63;47.70;;
70740;Laerm;58330;51.888;11.052;2022-12-29T08:51:51;37.45;34.75;44.70;;
70740;Laerm;58330;51.888;11.052;2022-12-29T08:54:17;36.80;34.96;40.91;;
70740;Laerm;58330;51.888;11.052;2022-12-29T08:56:43;36.80;34.91;40.68;;
70740;Laerm;58330;51.888;11.052;2022-12-29T08:59:09;37.37;34.76;46.69;;
70740;Laerm;58330;51.888;11.052;2022-12-29T09:01:35;36.36;34.80;39.74;;
70740;Laerm;58330;51.888;11.052;2022-12-29T09:04:01;36.83;34.61;40.99;;
70740;Laerm;58330;51.888;11.052;2022-12-29T09:06:27;37.14;35.03;43.27;;
70740;Laerm;58330;51.888;11.052;2022-12-29T09:08:53;36.98;35.09;46.11;;
70740;Laerm;58330;51.888;11.052;2022-12-29T09:11:19;37.16;35.12;52.18;;
70740;Laerm;58330;51.888;11.052;2022-12-29T09:13:46;37.34;34.59;44.19;;
70740;Laerm;58330;51.888;11.052;2022-12-29T09:16:14;39.18;35.24;43.61;;
70740;Laerm;58330;51.888;11.052;2022-12-29T09:18:40;39.50;36.28;44.94;;
70740;Laerm;58330;51.888;11.052;2022-12-29T09:21:06;39.49;36.44;45.19;;
70740;Laerm;58330;51.888;11.052;2022-12-29T09:23:32;38.93;36.12;46.81;;
70740;Laerm;58330;51.888;11.052;2022-12-29T09:25:58;38.69;36.48;42.00;;
70740;Laerm;58330;51.888;11.052;2022-12-29T09:28:24;39.39;36.57;45.86;;
70740;Laerm;58330;51.888;11.052;2022-12-29T09:30:50;39.39;36.94;44.90;;
70740;Laerm;58330;51.888;11.052;2022-12-29T09:33:16;39.71;37.84;44.05;;
70740;Laerm;58330;51.888;11.052;2022-12-29T09:35:43;39.64;37.99;41.12;;
70740;Laerm;58330;51.888;11.052;2022-12-29T09:38:08;39.84;38.08;42.79;;
70740;Laerm;58330;51.888;11.052;2022-12-29T09:40:35;40.26;38.47;56.39;;
70740;Laerm;58330;51.888;11.052;2022-12-29T09:43:13;40.23;38.34;43.44;;
70740;Laerm;58330;51.888;11.052;2022-12-29T09:45:42;39.77;38.24;41.26;;
70740;Laerm;58330;51.888;11.052;2022-12-29T09:48:11;39.58;37.91;41.79;;
70740;Laerm;58330;51.888;11.052;2022-12-29T09:50:39;39.79;37.99;42.31;;
70740;Laerm;58330;51.888;11.052;2022-12-29T09:53:10;39.76;38.01;41.27;;
70740;Laerm;58330;51.888;11.052;2022-12-29T09:55:40;40.03;38.33;43.28;;
70740;Laerm;58330;51.888;11.052;2022-12-29T09:58:10;39.65;38.09;41.22;;
70740;Laerm;58330;51.888;11.052;2022-12-29T10:00:38;39.77;37.66;42.22;;
70740;Laerm;58330;51.888;11.052;2022-12-29T10:03:05;40.85;38.47;43.74;;
70740;Laerm;58330;51.888;11.052;2022-12-29T10:05:36;40.76;38.39;47.70;;
70740;Laerm;58330;51.888;11.052;2022-12-29T10:08:12;39.71;37.95;43.13;;
70740;Laerm;58330;51.888;11.052;2022-12-29T10:10:43;39.52;37.73;41.93;;
70740;Laerm;58330;51.888;11.052;2022-12-29T10:13:16;39.60;37.77;43.20;;
70740;Laerm;58330;51.888;11.052;2022-12-29T10:15:47;39.43;37.47;42.23;;
70740;Laerm;58330;51.888;11.052;2022-12-29T10:18:20;39.38;37.61;45.35;;
70740;Laerm;58330;51.888;11.052;2022-12-29T10:20:52;39.26;37.44;41.79;;
70740;Laerm;58330;51.888;11.052;2022-12-29T10:23:22;39.41;37.29;43.80;;
70740;Laerm;58330;51.888;11.052;2022-12-29T10:25:50;39.13;37.68;41.39;;
70740;Laerm;58330;51.888;11.052;2022-12-29T10:28:19;41.82;37.12;72.84;;
70740;Laerm;58330;51.888;11.052;2022-12-29T10:30:46;52.39;37.11;77.53;;
70740;Laerm;58330;51.888;11.052;2022-12-29T10:33:14;41.52;39.67;48.17;;
70740;Laerm;58330;51.888;11.052;2022-12-29T10:35:41;41.35;40.06;42.58;;
70740;Laerm;58330;51.888;11.052;2022-12-29T10:38:11;41.78;40.41;43.30;;
70740;Laerm;58330;51.888;11.052;2022-12-29T10:40:42;42.45;40.85;45.24;;
70740;Laerm;58330;51.888;11.052;2022-12-29T10:43:13;42.43;40.75;45.45;;
70740;Laerm;58330;51.888;11.052;2022-12-29T10:45:41;42.50;40.75;45.34;;
70740;Laerm;58330;51.888;11.052;2022-12-29T10:48:09;42.81;40.80;46.37;;
70740;Laerm;58330;51.888;11.052;2022-12-29T10:50:36;42.87;40.33;46.66;;
70740;Laerm;58330;51.888;11.052;2022-12-29T10:53:07;45.03;40.40;51.39;;
70740;Laerm;58330;51.888;11.052;2022-12-29T10:55:36;45.55;40.68;52.15;;
70740;Laerm;58330;51.888;11.052;2022-12-29T10:58:04;45.67;41.48;51.52;;
70740;Laerm;58330;51.888;11.052;2022-12-29T11:00:32;44.44;40.63;48.53;;
70740;Laerm;58330;51.888;11.052;2022-12-29T11:03:05;44.54;40.66;51.93;;
70740;Laerm;58330;51.888;11.052;2022-12-29T11:05:35;43.09;40.01;47.61;;
70740;Laerm;58330;51.888;11.052;2022-12-29T11:08:02;43.29;40.36;47.54;;
70740;Laerm;58330;51.888;11.052;2022-12-29T11:10:29;43.86;39.74;47.65;;
70740;Laerm;58330;51.888;11.052;2022-12-29T11:12:59;43.99;40.83;47.60;;
70740;Laerm;58330;51.888;11.052;2022-12-29T11:15:25;43.67;40.50;47.33;;
70740;Laerm;58330;51.888;11.052;2022-12-29T11:17:52;43.12;40.06;46.97;;
70740;Laerm;58330;51.888;11.052;2022-12-29T11:20:19;44.19;40.43;48.04;;
70740;Laerm;58330;51.888;11.052;2022-12-29T11:22:45;45.15;41.22;48.98;;
70740;Laerm;58330;51.888;11.052;2022-12-29T11:25:12;45.86;41.93;52.10;;
70740;Laerm;58330;51.888;11.052;2022-12-29T11:27:37;44.64;41.48;48.46;;
70740;Laerm;58330;51.888;11.052;2022-12-29T11:30:11;43.29;40.85;46.93;;
70740;Laerm;58330;51.888;11.052;2022-12-29T11:32:50;43.49;39.67;50.59;;
70740;Laerm;58330;51.888;11.052;2022-12-29T11:35:18;41.45;39.12;43.53;;
70740;Laerm;58330;51.888;11.052;2022-12-29T11:37:54;41.27;39.27;44.52;;
70740;Laerm;58330;51.888;11.052;2022-12-29T11:40:22;41.66;39.66;44.81;;
70740;Laerm;58330;51.888;11.052;2022-12-29T11:42:48;40.96;38.74;43.80;;
70740;Laerm;58330;51.888;11.052;2022-12-29T11:45:17;40.25;38.15;51.72;;
70740;Laerm;58330;51.888;11.052;2022-12-29T11:47:44;39.13;37.11;41.61;;
70740;Laerm;58330;51.888;11.052;2022-12-29T11:50:16;38.93;36.94;41.08;;
70740;Laerm;58330;51.888;11.052;2022-12-29T11:52:43;38.38;36.68;39.84;;
70740;Laerm;58330;51.888;11.052;2022-12-29T11:55:16;38.40;36.17;43.36;;
70740;Laerm;58330;51.888;11.052;2022-12-29T11:57:42;37.83;35.79;45.08;;
70740;Laerm;58330;51.888;11.052;2022-12-29T12:00:14;37.28;35.69;40.00;;
70740;Laerm;58330;51.888;11.052;2022-12-29T12:02:41;36.96;34.89;40.60;;
70740;Laerm;58330;51.888;11.052;2022-12-29T12:08:00;37.54;34.92;45.57;;
70740;Laerm;58330;51.888;11.052;2022-12-29T12:10:27;36.90;34.63;40.58;;
70740;Laerm;58330;51.888;11.052;2022-12-29T12:12:56;36.64;34.82;38.79;;
70740;Laerm;58330;51.888;11.052;2022-12-29T12:15:28;37.72;34.64;45.85;;
70740;Laerm;58330;51.888;11.052;2022-12-29T12:17:57;36.73;34.70;44.12;;
70740;Laerm;58330;51.888;11.052;2022-12-29T12:20:26;37.98;34.75;44.08;;
70740;Laerm;58330;51.888;11.052;2022-12-29T12:22:59;38.17;34.90;46.11;;
70740;Laerm;58330;51.888;11.052;2022-12-29T12:25:30;36.13;34.15;39.28;;
70740;Laerm;58330;51.888;11.052;2022-12-29T12:28:00;36.13;34.46;41.29;;
70740;Laerm;58330;51.888;11.052;2022-12-29T12:30:34;37.82;34.59;44.56;;
70740;Laerm;58330;51.888;11.052;2022-12-29T12:33:03;36.43;34.42;44.89;;
70740;Laerm;58330;51.888;11.052;2022-12-29T12:35:32;37.44;34.18;44.43;;
70740;Laerm;58330;51.888;11.052;2022-12-29T12:38:05;37.48;34.77;45.58;;
70740;Laerm;58330;51.888;11.052;2022-12-29T12:40:37;36.38;34.60;41.76;;
70740;Laerm;58330;51.888;11.052;2022-12-29T12:43:14;36.40;34.22;42.77;;
70740;Laerm;58330;51.888;11.052;2022-12-29T12:45:47;37.64;34.23;46.42;;
70740;Laerm;58330;51.888;11.052;2022-12-29T12:48:25;36.97;34.28;45.34;;
70740;Laerm;58330;51.888;11.052;2022-12-29T12:50:55;38.44;34.24;57.14;;
70740;Laerm;58330;51.888;11.052;2022-12-29T12:53:27;37.65;34.28;57.99;;
70740;Laerm;58330;51.888;11.052;2022-12-29T12:56:06;36.16;34.22;42.00;;
70740;Laerm;58330;51.888;11.052;2022-12-29T12:58:36;37.99;34.37;44.47;;
70740;Laerm;58330;51.888;11.052;2022-12-29T13:01:10;37.50;34.60;45.88;;
70740;Laerm;58330;51.888;11.052;2022-12-29T13:03:41;37.25;34.62;42.51;;
70740;Laerm;58330;51.888;11.052;2022-12-29T13:06:13;38.41;34.26;52.58;;
70740;Laerm;58330;51.888;11.052;2022-12-29T13:11:37;36.08;33.83;42.54;;
70740;Laerm;58330;51.888;11.052;2022-12-29T13:14:14;36.00;34.34;39.09;;
70740;Laerm;58330;51.888;11.052;2022-12-29T13:16:45;35.97;34.08;44.78;;
70740;Laerm;58330;51.888;11.052;2022-12-29T13:19:14;37.10;34.48;48.72;;
70740;Laerm;58330;51.888;11.052;2022-12-29T13:21:49;36.90;34.09;43.99;;
70740;Laerm;58330;51.888;11.052;2022-12-29T13:24:19;36.60;33.93;44.62;;
70740;Laerm;58330;51.888;11.052;2022-12-29T13:26:50;37.10;34.29;48.45;;
70740;Laerm;58330;51.888;11.052;2022-12-29T13:29:18;37.09;34.05;42.38;;
70740;Laerm;58330;51.888;11.052;2022-12-29T13:31:48;36.14;33.99;44.11;;
70740;Laerm;58330;51.888;11.052;2022-12-29T13:34:18;36.87;34.33;45.70;;
70740;Laerm;58330;51.888;11.052;2022-12-29T13:36:45;37.16;34.68;44.19;;
70740;Laerm;58330;51.888;11.052;2022-12-29T13:39:14;36.76;34.04;45.03;;
70740;Laerm;58330;51.888;11.052;2022-12-29T13:41:43;36.97;34.24;47.75;;
70740;Laerm;58330;51.888;11.052;2022-12-29T13:44:11;36.26;34.21;39.18;;